Rockerville, South Dakota
Current Conditions -  °F | °C
As of 12:52 AM on Tuesday 21 Oct 2014 (Local Time) from KRAP Reporting Station
Clear Clear  
Wind Chill: 53°   Ceiling: Unl
Heat Index: 53°   Visibility: 10mi
Dew Point: 42°   Wind: 5mph
Humidity: 66%   Direction: 130°SE
Pressure: 29.87"   Gusts: NA
Location:  44.0731°N, 103.205°W
Report Text: KRAP 210652Z AUTO 13004KT 10SM CLR 12/06 A2987 RMK AO2 SLP100 T01170056 402500033
Loading
Personal Weather Stations






























Interactive Weather Map
Tropical Storm Tracking
New forecast layout! Learn more

10-Day Weather Forecast

Advertisements
Track Severe Weather on mobile